Terminal Aerodrome Forecast
Issued by NWS

Home | Current Version | Previous Version | Text Only | Print | Product List | Glossary On
Versions: 1 2 3 4 5 6 7 8 9 10 11 12 13 14 15 16 17 18 19 20 21 22 23 24 25
909
FTUS41 KPBZ 041321 AAA
TAFLBE
TAF AMD
KLBE 041321Z 0413/0512 00000KT 5SM BR VCSH BKN045
     FM050300 VRB03KT 3SM -SHRA OVC025
     FM050600 VRB03KT 3SM -SHRA BR OVC015=

USA.gov is the U.S. government's official web portal to all federal, state and local government web resources and services.